Time;durP1;ratioP1;P1;durP2;ratioP2;P2;SDS_P1;SDS_P2;PMS_P1;PMS_P2;Temp;Humidity;BMP_temperature;BMP_pressure;BME280_temperature;BME280_humidity;BME280_pressure;Samples;Min_cycle;Max_cycle;Signal;HPM_P1;HPM_P2
2022/10/15 00:02:34;;;;;;;3.93;3.40;;;15.90;47.20;;;;;;5084023;28;20209;-85
2022/10/15 00:08:21;;;;;;;3.93;3.60;;;15.90;47.20;;;;;;5080170;28;20201;-85
2022/10/15 00:14:09;;;;;;;3.57;3.27;;;15.90;47.30;;;;;;5075110;28;20254;-85
2022/10/15 00:19:56;;;;;;;7.67;4.90;;;16.00;47.30;;;;;;5086186;28;20173;-80
2022/10/15 00:23:18;;;;;;;5.97;4.13;;;16.00;47.50;;;;;;5085421;28;20820;-81
2022/10/15 00:26:36;;;;;;;4.90;4.43;;;16.00;47.20;;;;;;5079242;28;20244;-81
2022/10/15 00:35:45;;;;;;;10.83;4.87;;;15.90;47.10;;;;;;5080407;28;20404;-85
2022/10/15 00:41:41;;;;;;;6.10;4.60;;;15.90;47.20;;;;;;5080557;28;20222;-85
2022/10/15 00:44:30;;;;;;;8.30;4.77;;;15.90;47.20;;;;;;5093841;28;20902;-85
2022/10/15 00:47:16;;;;;;;5.60;4.60;;;15.90;47.10;;;;;;5081964;28;20450;-84
2022/10/15 00:56:27;;;;;;;8.20;5.70;;;15.90;47.20;;;;;;5076103;28;20419;-85
2022/10/15 00:59:08;;;;;;;9.03;5.87;;;15.90;47.20;;;;;;5093417;28;20477;-85
2022/10/15 01:05:20;;;;;;;9.07;6.00;;;15.80;47.10;;;;;;5081797;28;20972;-82
2022/10/15 01:08:36;;;;;;;11.70;6.90;;;15.80;52.20;;;;;;5093311;28;20420;-80
2022/10/15 01:21:29;;;;;;;10.23;6.60;;;16.00;47.20;;;;;;5074105;28;20456;-82
2022/10/15 01:27:31;;;;;;;9.47;7.70;;;16.00;47.20;;;;;;5074303;28;20922;-80
2022/10/15 01:30:26;;;;;;;11.63;8.57;;;16.00;47.30;;;;;;5086896;28;20478;-80
2022/10/15 01:33:07;;;;;;;12.40;8.90;;;16.00;47.30;;;;;;5078703;28;20472;-80
2022/10/15 01:39:20;;;;;;;14.60;7.90;;;16.10;49.30;;;;;;5088396;28;20375;-85
2022/10/15 01:58:32;;;;;;;15.20;10.93;;;16.10;47.30;;;;;;5074837;28;20700;-82
2022/10/15 02:01:12;;;;;;;17.03;9.80;;;16.10;47.60;;;;;;5078172;28;20415;-80
2022/10/15 02:10:27;;;;;;;11.57;8.80;;;16.10;47.30;;;;;;5077245;28;20905;-85
2022/10/15 02:13:15;;;;;;;15.47;9.70;;;16.10;47.40;;;;;;5087932;28;20419;-85
2022/10/15 02:19:28;;;;;;;16.27;9.07;;;16.10;47.40;;;;;;5088113;28;20415;-82
2022/10/15 02:22:20;;;;;;;13.30;9.23;;;16.10;47.40;;;;;;5090066;28;20525;-80
2022/10/15 02:28:18;;;;;;;15.00;9.33;;;16.10;47.40;;;;;;5088758;28;20386;-81
2022/10/15 02:31:02;;;;;;;12.30;8.20;;;16.10;47.30;;;;;;5089648;28;20387;-80
2022/10/15 02:34:12;;;;;;;14.70;8.33;;;16.20;47.40;;;;;;5103756;27;20429;-81
2022/10/15 02:47:12;;;;;;;14.30;8.60;;;16.10;47.20;;;;;;5086830;28;20719;-80
2022/10/15 02:50:24;;;;;;;11.30;7.93;;;16.10;47.30;;;;;;5091147;28;20379;-85
2022/10/15 02:56:11;;;;;;;13.23;7.60;;;16.20;47.40;;;;;;5082602;28;20403;-85
2022/10/15 03:01:59;;;;;;;11.93;7.23;;;16.20;47.40;;;;;;5081950;28;20253;-85
2022/10/15 03:08:30;;;;;;;16.40;8.10;;;16.20;47.40;;;;;;5095067;28;20281;-85
2022/10/15 03:10:59;;;;;;;13.37;7.57;;;16.10;47.30;;;;;;5095819;28;20418;-85
2022/10/15 03:16:47;;;;;;;13.07;8.10;;;16.10;47.30;;;;;;5089120;28;20382;-86
2022/10/15 03:19:42;;;;;;;12.03;8.43;;;16.10;47.40;;;;;;5113512;28;20750;-85
2022/10/15 03:29:30;;;;;;;13.50;7.90;;;16.10;47.30;;;;;;5077314;28;20375;-81
2022/10/15 03:32:06;;;;;;;13.50;8.17;;;16.00;47.20;;;;;;5083162;28;20407;-81
2022/10/15 03:34:42;;;;;;;14.37;8.43;;;16.00;47.50;;;;;;5075630;28;20747;-81
2022/10/15 03:37:42;;;;;;;19.10;9.30;;;16.10;47.40;;;;;;5079923;28;20975;-81
2022/10/15 03:46:51;;;;;;;16.07;9.20;;;16.10;47.20;;;;;;5079905;28;20492;-80
2022/10/15 03:49:42;;;;;;;20.83;10.10;;;16.10;47.60;;;;;;5090319;28;20486;-82
2022/10/15 03:52:08;;;;;;;24.80;9.97;;;16.10;47.40;;;;;;5089862;28;20174;-80
2022/10/15 03:54:36;;;;;;;18.93;10.00;;;16.10;47.40;;;;;;5091950;28;20391;-80
2022/10/15 04:01:06;;;;;;;18.23;9.00;;;16.20;47.40;;;;;;5074926;28;20753;-80
2022/10/15 04:04:12;;;;;;;17.97;9.53;;;16.20;47.40;;;;;;5074861;28;20372;-81
2022/10/15 04:06:46;;;;;;;20.33;9.50;;;16.10;47.40;;;;;;5083911;28;20394;-81
2022/10/15 04:09:42;;;;;;;21.87;9.73;;;16.10;47.40;;;;;;5081237;28;20410;-81
2022/10/15 04:12:42;;;;;;;26.23;9.93;;;16.20;47.40;;;;;;5077487;28;20501;-80
2022/10/15 04:19:12;;;;;;;19.90;9.37;;;16.20;47.40;;;;;;5080200;28;21631;-81
2022/10/15 04:21:43;;;;;;;24.80;9.60;;;16.20;47.30;;;;;;5088223;28;20446;-86
2022/10/15 04:24:42;;;;;;;15.83;8.17;;;16.20;47.60;;;;;;5081270;28;20437;-86
2022/10/15 04:27:36;;;;;;;19.77;9.17;;;16.10;47.40;;;;;;5082275;28;20989;-87
2022/10/15 04:37:12;;;;;;;15.93;8.03;;;16.10;47.30;;;;;;5080864;28;20414;-80
2022/10/15 04:39:38;;;;;;;17.97;8.20;;;16.10;47.40;;;;;;5084375;28;20461;-80
2022/10/15 04:42:12;;;;;;;20.27;8.87;;;15.90;58.50;;;;;;5092969;28;20923;-80
2022/10/15 04:45:12;;;;;;;16.27;8.50;;;16.00;62.10;;;;;;5073576;28;20178;-80
2022/10/15 04:47:49;;;;;;;18.10;8.30;;;15.90;59.80;;;;;;5085192;28;20422;-80
2022/10/15 04:50:42;;;;;;;16.33;7.60;;;15.90;65.90;;;;;;5084213;28;20429;-82
2022/10/15 04:53:42;;;;;;;15.27;6.70;;;15.90;65.80;;;;;;5078743;28;20425;-80
2022/10/15 04:56:42;;;;;;;14.23;7.63;;;15.90;65.70;;;;;;5075967;28;20392;-80
2022/10/15 04:59:43;;;;;;;13.23;6.93;;;15.90;68.10;;;;;;5078467;28;20424;-80
2022/10/15 05:02:42;;;;;;;20.30;7.77;;;16.00;66.40;;;;;;5079330;28;20419;-80
2022/10/15 05:05:12;;;;;;;22.13;7.30;;;15.90;62.40;;;;;;5083954;28;20425;-83
2022/10/15 05:07:42;;;;;;;17.97;7.53;;;15.90;63.50;;;;;;5080228;28;21004;-84
2022/10/15 05:10:42;;;;;;;20.33;9.00;;;15.90;64.70;;;;;;5083719;28;20910;-79
2022/10/15 05:13:42;;;;;;;19.40;7.40;;;15.90;67.60;;;;;;5080685;28;20403;-79
2022/10/15 05:16:42;;;;;;;16.40;7.83;;;15.90;66.80;;;;;;5082440;28;20444;-79
2022/10/15 05:19:42;;;;;;;30.00;8.37;;;15.80;61.80;;;;;;5089541;28;20925;-79
2022/10/15 05:22:42;;;;;;;22.33;9.03;;;15.70;69.20;;;;;;5085426;28;20498;-79
2022/10/15 05:25:42;;;;;;;16.20;8.30;;;15.70;81.00;;;;;;5080312;28;20432;-79
2022/10/15 05:31:32;;;;;;;22.70;8.67;;;15.70;75.30;;;;;;5088764;28;20400;-79
2022/10/15 05:37:42;;;;;;;15.20;7.50;;;15.80;74.90;;;;;;5080787;28;20421;-77
2022/10/15 05:40:36;;;;;;;18.40;8.00;;;15.70;72.10;;;;;;5087410;28;20388;-76
2022/10/15 05:43:02;;;;;;;17.00;7.77;;;15.80;71.40;;;;;;5088096;28;20455;-76
2022/10/15 05:45:43;;;;;;;18.53;8.47;;;15.80;69.00;;;;;;5084654;28;20388;-76
2022/10/15 05:48:19;;;;;;;14.43;7.37;;;15.80;67.80;;;;;;5093662;28;20181;-77
2022/10/15 05:51:12;;;;;;;19.97;8.60;;;15.80;67.70;;;;;;5087034;28;20375;-77
2022/10/15 05:53:45;;;;;;;16.00;8.53;;;15.70;68.90;;;;;;5083005;28;20394;-79
2022/10/15 05:56:42;;;;;;;15.37;8.30;;;15.80;69.40;;;;;;5091126;28;20396;-79
2022/10/15 06:02:48;;;;;;;13.93;7.83;;;15.70;64.70;;;;;;5091414;28;20504;-79
2022/10/15 06:05:36;;;;;;;19.33;9.17;;;15.70;64.60;;;;;;5097046;28;20808;-80
2022/10/15 06:08:20;;;;;;;14.80;7.47;;;15.70;62.10;;;;;;5080241;28;20387;-80
2022/10/15 06:11:06;;;;;;;12.97;7.40;;;15.70;62.50;;;;;;5077895;28;20392;-79
2022/10/15 06:14:12;;;;;;;14.57;7.30;;;15.60;66.60;;;;;;5096533;28;20418;-80
2022/10/15 06:16:54;;;;;;;12.27;6.67;;;15.60;69.30;;;;;;5095182;28;20363;-79
2022/10/15 06:19:30;;;;;;;12.00;6.00;;;15.60;70.90;;;;;;5079703;28;20396;-79
2022/10/15 06:22:07;;;;;;;17.43;6.30;;;15.60;70.80;;;;;;5085959;28;20823;-76
2022/10/15 06:24:43;;;;;;;10.87;6.63;;;15.70;72.40;;;;;;5083249;28;20767;-77
2022/10/15 06:27:22;;;;;;;14.73;5.27;;;15.70;71.40;;;;;;5092875;28;21034;-77
2022/10/15 06:30:25;;;;;;;8.60;5.37;;;15.60;70.20;;;;;;5086267;28;20922;-77
2022/10/15 06:33:01;;;;;;;6.90;5.10;;;15.60;71.50;;;;;;5081677;28;20924;-77
2022/10/15 06:35:34;;;;;;;7.50;5.03;;;15.60;74.20;;;;;;5086661;28;20417;-77
2022/10/15 06:38:07;;;;;;;9.37;5.43;;;15.70;70.30;;;;;;5079529;28;20427;-77
2022/10/15 06:40:38;;;;;;;7.37;4.57;;;15.70;68.80;;;;;;5085331;28;20407;-77
2022/10/15 06:43:09;;;;;;;8.20;5.13;;;15.70;66.00;;;;;;5081601;28;20483;-78
2022/10/15 06:45:40;;;;;;;13.93;5.20;;;15.70;62.80;;;;;;5089317;28;20404;-77
2022/10/15 06:48:08;;;;;;;6.80;4.70;;;15.80;65.20;;;;;;5089955;28;20414;-77
2022/10/15 06:50:56;;;;;;;12.63;5.77;;;15.80;59.20;;;;;;5082401;28;20432;-77
2022/10/15 06:53:22;;;;;;;8.10;5.10;;;15.80;59.60;;;;;;5083252;28;20394;-79
2022/10/15 06:56:02;;;;;;;6.60;4.77;;;15.80;47.50;;;;;;5078908;28;20404;-79
2022/10/15 06:58:43;;;;;;;5.20;4.37;;;15.70;60.10;;;;;;5076964;28;20166;-80
2022/10/15 07:04:30;;;;;;;7.00;4.80;;;15.80;50.50;;;;;;5084526;28;20924;-79
2022/10/15 07:07:07;;;;;;;5.47;4.00;;;15.80;47.10;;;;;;5089410;28;20395;-79
2022/10/15 07:09:52;;;;;;;6.00;4.23;;;15.80;47.10;;;;;;5085616;28;20679;-79
2022/10/15 07:12:31;;;;;;;8.67;4.70;;;15.70;53.10;;;;;;5089852;28;20400;-79
2022/10/15 07:21:43;;;;;;;8.23;4.00;;;15.70;52.00;;;;;;5083353;28;20526;-78
2022/10/15 07:27:31;;;;;;;6.60;4.13;;;15.90;57.80;;;;;;5080849;28;20773;-79
2022/10/15 07:30:19;;;;;;;9.07;3.97;;;16.00;47.30;;;;;;5079843;28;20392;-79
2022/10/15 07:36:10;;;;;;;8.87;4.57;;;16.10;47.40;;;;;;5075406;28;20435;-79
2022/10/15 07:41:57;;;;;;;5.93;3.67;;;16.10;47.40;;;;;;5083958;28;20445;-79
2022/10/15 07:51:11;;;;;;;4.80;3.33;;;16.40;47.50;;;;;;5083474;28;20405;-79
2022/10/15 07:54:13;;;;;;;8.57;3.37;;;16.50;47.70;;;;;;5077602;28;20482;-77
2022/10/15 07:57:24;;;;;;;4.70;3.30;;;16.70;47.90;;;;;;5084265;28;20480;-77
2022/10/15 08:00:25;;;;;;;3.80;3.50;;;16.80;48.00;;;;;;5074829;28;20430;-77
2022/10/15 08:02:55;;;;;;;5.63;3.10;;;16.90;48.10;;;;;;5076481;28;20436;-77
2022/10/15 08:05:55;;;;;;;4.43;3.37;;;17.00;41.90;;;;;;5083231;28;20952;-77
2022/10/15 08:08:21;;;;;;;3.43;3.13;;;17.10;37.80;;;;;;5079056;28;20389;-78
2022/10/15 08:10:49;;;;;;;4.63;3.00;;;17.20;33.50;;;;;;5079900;28;20430;-77
2022/10/15 08:13:19;;;;;;;3.40;3.10;;;17.40;26.90;;;;;;5083145;28;20447;-77
2022/10/15 08:16:07;;;;;;;2.87;2.67;;;17.50;25.20;;;;;;5093079;28;20925;-78
2022/10/15 08:18:34;;;;;;;4.77;3.03;;;17.70;19.80;;;;;;5075870;28;20473;-77
2022/10/15 08:21:07;;;;;;;3.43;2.60;;;17.90;10.90;;;;;;5074395;28;20931;-77
2022/10/15 08:26:57;;;;;;;4.70;2.40;;;17.80;2.60;;;;;;5076357;28;20464;-79
2022/10/15 08:33:06;;;;;;;4.13;2.60;;;18.00;3.70;;;;;;5081124;28;20945;-79
2022/10/15 08:36:07;;;;;;;1.90;1.80;;;18.10;1.70;;;;;;5083615;28;20512;-80
2022/10/15 08:41:58;;;;;;;6.67;2.73;;;18.40;1.00;;;;;;5077865;28;20511;-79
2022/10/15 08:45:18;;;;;;;5.80;1.67;;;18.50;1.00;;;;;;5081754;28;20757;-79
2022/10/15 08:47:54;;;;;;;5.90;2.47;;;18.50;1.00;;;;;;5078050;28;20396;-79
2022/10/15 08:53:55;;;;;;;2.40;2.20;;;18.50;1.00;;;;;;5075136;28;20797;-76
2022/10/15 08:56:32;;;;;;;1.70;1.60;;;18.40;1.00;;;;;;5088181;28;20502;-76
2022/10/15 08:58:58;;;;;;;9.10;2.87;;;18.40;1.00;;;;;;5091587;28;20444;-76
2022/10/15 09:01:51;;;;;;;7.20;2.37;;;18.30;1.00;;;;;;5077627;28;20455;-75
2022/10/15 09:04:23;;;;;;;3.83;2.47;;;18.40;1.00;;;;;;5082297;28;20173;-74
2022/10/15 09:06:58;;;;;;;2.87;2.20;;;18.30;1.00;;;;;;5079582;28;20424;-74
2022/10/15 09:09:50;;;;;;;4.67;2.10;;;18.50;1.00;;;;;;5082650;28;20863;-80
2022/10/15 09:12:55;;;;;;;2.03;1.90;;;18.70;1.00;;;;;;5073583;28;20462;-81
2022/10/15 09:16:01;;;;;;;4.20;2.20;;;19.00;1.00;;;;;;5083491;28;20933;-80
2022/10/15 09:18:43;;;;;;;18.20;9.83;;;19.00;1.00;;;;;;5078257;28;20423;-80
2022/10/15 09:21:26;;;;;;;6.17;4.10;;;19.10;1.00;;;;;;5082356;28;20420;-79
2022/10/15 09:24:02;;;;;;;3.77;3.40;;;19.20;1.00;;;;;;5080719;28;20809;-78
2022/10/15 09:30:05;;;;;;;12.70;6.60;;;19.50;1.00;;;;;;5079676;28;20490;-79
2022/10/15 09:32:52;;;;;;;48.57;31.13;;;19.50;1.00;;;;;;5081142;28;20453;-80
2022/10/15 09:36:01;;;;;;;6.73;5.23;;;19.60;1.00;;;;;;5086329;28;20809;-81
2022/10/15 09:38:43;;;;;;;29.07;18.27;;;19.70;1.00;;;;;;5091122;28;20422;-79
2022/10/15 09:44:42;;;;;;;2.10;2.00;;;20.20;1.00;;;;;;5081529;28;20419;-80
2022/10/15 09:51:15;;;;;;;17.70;10.57;;;20.10;1.00;;;;;;5082363;28;20411;-79
2022/10/15 09:54:37;;;;;;;235.73;109.23;;;19.90;1.00;;;;;;5076917;28;20779;-79
2022/10/15 09:57:38;;;;;;;15.77;7.70;;;19.90;1.00;;;;;;5078141;28;20406;-81
2022/10/15 10:00:14;;;;;;;22.93;10.70;;;19.80;1.00;;;;;;5075142;28;20400;-80
2022/10/15 10:02:40;;;;;;;6.50;4.60;;;19.80;1.00;;;;;;5092363;28;20458;-80
2022/10/15 10:05:49;;;;;;;136.10;77.17;;;19.90;1.00;;;;;;5089905;28;20506;-80
2022/10/15 10:09:07;;;;;;;10.70;6.70;;;20.00;1.00;;;;;;5088904;28;20417;-74
2022/10/15 10:12:16;;;;;;;87.47;48.30;;;20.00;1.00;;;;;;5077037;28;20410;-79
2022/10/15 10:15:27;;;;;;;12.03;8.10;;;20.30;1.00;;;;;;5087049;28;20490;-79
2022/10/15 10:18:37;;;;;;;48.30;31.80;;;20.50;1.00;;;;;;5077287;28;20436;-79
2022/10/15 10:21:40;;;;;;;501.37;402.43;;;20.70;1.00;;;;;;5083710;28;20401;-79
2022/10/15 10:24:29;;;;;;;61.93;47.43;;;20.80;1.00;;;;;;5088265;28;20514;-74
2022/10/15 10:26:56;;;;;;;13.93;9.93;;;21.00;1.00;;;;;;5086232;28;20402;-74
2022/10/15 10:29:24;;;;;;;31.37;16.30;;;21.00;1.00;;;;;;5076140;28;20409;-75
2022/10/15 10:31:51;;;;;;;26.53;18.00;;;20.90;1.00;;;;;;5089326;28;20431;-75
2022/10/15 10:34:26;;;;;;;16.67;4.87;;;20.90;1.00;;;;;;5080457;28;20446;-74
2022/10/15 10:36:53;;;;;;;13.73;9.93;;;20.80;1.00;;;;;;5088661;28;20420;-74
2022/10/15 10:39:28;;;;;;;9.63;4.13;;;20.80;1.00;;;;;;5082376;28;20467;-74
2022/10/15 10:42:12;;;;;;;16.40;8.73;;;20.50;1.00;;;;;;5087137;28;20861;-74
2022/10/15 10:44:40;;;;;;;12.90;5.07;;;20.40;1.00;;;;;;5076886;28;20421;-74
2022/10/15 10:47:17;;;;;;;26.73;16.40;;;20.30;1.00;;;;;;5085670;28;20466;-75
2022/10/15 10:49:46;;;;;;;19.70;10.37;;;20.00;1.00;;;;;;5086517;28;20429;-74
2022/10/15 10:52:36;;;;;;;28.80;14.70;;;19.90;1.00;;;;;;5087478;28;20416;-74
2022/10/15 10:55:21;;;;;;;8.97;5.80;;;19.70;1.00;;;;;;5079825;28;20905;-75
2022/10/15 10:57:56;;;;;;;225.37;118.37;;;19.60;1.00;;;;;;5076265;28;20403;-74
2022/10/15 11:00:28;;;;;;;11.57;4.37;;;19.30;1.00;;;;;;5076186;28;20933;-74
2022/10/15 11:02:53;;;;;;;32.37;21.30;;;19.20;1.00;;;;;;5089930;28;20450;-74
2022/10/15 11:05:37;;;;;;;9.10;2.60;;;19.10;1.00;;;;;;5091794;28;20423;-74
2022/10/15 11:08:23;;;;;;;8.13;4.40;;;19.10;1.00;;;;;;5082584;28;20172;-74
2022/10/15 11:10:56;;;;;;;17.97;10.93;;;19.10;1.00;;;;;;5084471;28;20434;-74
2022/10/15 11:13:44;;;;;;;17.77;11.07;;;19.00;1.00;;;;;;5080457;28;21013;-74
2022/10/15 11:16:28;;;;;;;3.63;2.50;;;18.80;1.00;;;;;;5077055;28;20784;-77
2022/10/15 11:19:37;;;;;;;3.03;1.33;;;19.00;1.00;;;;;;5096060;28;20384;-77
2022/10/15 11:22:49;;;;;;;3.83;1.60;;;19.30;1.00;;;;;;5079034;28;20535;-77
2022/10/15 11:25:37;;;;;;;2.83;2.37;;;19.40;1.00;;;;;;5077535;28;20443;-76
2022/10/15 11:28:21;;;;;;;31.20;21.97;;;19.60;1.00;;;;;;5079865;28;20395;-76
2022/10/15 11:31:05;;;;;;;40.03;22.83;;;19.80;1.00;;;;;;5087996;28;21152;-76
2022/10/15 11:33:49;;;;;;;4.73;4.17;;;19.60;1.00;;;;;;5085028;28;20398;-76
2022/10/15 11:36:37;;;;;;;23.00;13.90;;;19.70;1.00;;;;;;5080087;28;20469;-77
2022/10/15 11:39:26;;;;;;;10.20;4.53;;;19.80;1.00;;;;;;5095745;28;20396;-78
2022/10/15 11:42:14;;;;;;;16.53;12.67;;;19.80;1.00;;;;;;5081781;28;20459;-79
2022/10/15 11:48:42;;;;;;;26.07;14.67;;;19.70;1.00;;;;;;5083450;28;20968;-80
2022/10/15 11:51:59;;;;;;;20.30;11.63;;;19.60;1.00;;;;;;5083035;28;20424;-78
2022/10/15 11:55:04;;;;;;;24.90;12.23;;;19.70;1.00;;;;;;5011838;28;20430;-81
2022/10/15 11:58:19;;;;;;;302.67;147.20;;;19.80;1.00;;;;;;4935408;29;20430;-80
2022/10/15 12:01:24;;;;;;;2.40;2.30;;;19.60;1.00;;;;;;4919376;29;20442;-81
2022/10/15 12:04:18;;;;;;;157.87;78.80;;;19.60;1.00;;;;;;4935152;29;20467;-81
2022/10/15 12:07:12;;;;;;;100.97;53.30;;;19.60;1.00;;;;;;4935535;29;20431;-81
2022/10/15 12:09:50;;;;;;;180.13;110.50;;;19.60;1.00;;;;;;4919516;29;20815;-83
2022/10/15 12:12:39;;;;;;;8.53;3.57;;;19.60;1.00;;;;;;4930077;29;20896;-76
2022/10/15 12:15:28;;;;;;;10.60;3.27;;;19.50;1.00;;;;;;4934923;29;20952;-75
2022/10/15 12:18:13;;;;;;;4.20;3.10;;;19.40;1.00;;;;;;4933131;29;20470;-77
2022/10/15 12:20:41;;;;;;;66.67;33.23;;;19.20;1.00;;;;;;4929973;29;20438;-77
2022/10/15 12:23:41;;;;;;;88.27;38.67;;;19.00;1.00;;;;;;4935202;29;20569;-77
2022/10/15 12:26:31;;;;;;;13.60;7.77;;;19.20;1.00;;;;;;4933368;29;20455;-76
2022/10/15 12:29:31;;;;;;;21.70;12.03;;;19.10;1.00;;;;;;4933505;29;20435;-77
2022/10/15 12:32:02;;;;;;;52.30;25.77;;;19.20;1.00;;;;;;5018840;28;20458;-77
2022/10/15 12:34:38;;;;;;;19.83;11.33;;;19.20;1.00;;;;;;5086293;28;20441;-77
2022/10/15 12:37:18;;;;;;;8.50;4.50;;;19.20;1.00;;;;;;5086468;28;20978;-77
2022/10/15 12:40:21;;;;;;;4.50;2.60;;;19.20;1.00;;;;;;5080562;28;20788;-77
2022/10/15 12:46:36;;;;;;;8.13;6.13;;;19.30;1.00;;;;;;5013938;28;21068;-80
2022/10/15 12:49:40;;;;;;;5.07;2.83;;;19.20;1.00;;;;;;5019431;28;20465;-80
2022/10/15 12:55:35;;;;;;;3.80;2.13;;;18.90;1.00;;;;;;4919731;29;20472;-76
2022/10/15 12:58:34;;;;;;;3.63;1.30;;;18.90;1.00;;;;;;4919245;29;20422;-77
2022/10/15 13:01:06;;;;;;;5.83;2.23;;;18.80;1.00;;;;;;4934743;29;20433;-76
2022/10/15 13:03:35;;;;;;;4.10;2.47;;;18.70;1.00;;;;;;4910277;29;20993;-76
2022/10/15 13:06:32;;;;;;;1.50;1.40;;;18.70;1.00;;;;;;4940432;29;20471;-76
2022/10/15 13:09:26;;;;;;;1.50;1.30;;;18.80;1.00;;;;;;4878090;29;20431;-76
2022/10/15 13:12:37;;;;;;;2.80;1.23;;;19.00;1.00;;;;;;4879582;29;20969;-81
2022/10/15 13:18:26;;;;;;;2.73;1.27;;;18.80;1.00;;;;;;4916513;29;20457;-80
2022/10/15 13:25:07;;;;;;;5.30;1.27;;;18.60;1.00;;;;;;4943626;29;20415;-79
2022/10/15 13:27:38;;;;;;;1.90;1.30;;;18.70;1.00;;;;;;5026302;28;20438;-79
2022/10/15 13:30:55;;;;;;;1.57;1.00;;;18.70;1.00;;;;;;5015743;28;20395;-81
2022/10/15 13:36:44;;;;;;;1.90;1.03;;;18.70;1.00;;;;;;5026140;28;20444;-80
2022/10/15 13:39:43;;;;;;;3.63;1.10;;;18.60;1.00;;;;;;5031113;28;20388;-80
2022/10/15 13:45:37;;;;;;;2.30;1.00;;;18.70;1.00;;;;;;5039741;28;20402;-78
2022/10/15 13:48:40;;;;;;;2.97;0.93;;;18.70;1.00;;;;;;5078781;28;20888;-77
2022/10/15 14:01:16;;;;;;;4.23;0.90;;;18.70;1.00;;;;;;5073809;28;20409;-82
2022/10/15 14:04:19;;;;;;;1.43;0.90;;;18.70;1.00;;;;;;5072553;28;20550;-83
2022/10/15 14:10:08;;;;;;;2.73;0.87;;;18.50;1.00;;;;;;5086379;28;20857;-79
2022/10/15 14:12:34;;;;;;;1.27;0.90;;;18.50;1.00;;;;;;5097544;28;20515;-84
2022/10/15 14:15:37;;;;;;;3.00;0.90;;;18.50;1.00;;;;;;5096664;28;20455;-82
2022/10/15 14:24:52;;;;;;;0.90;0.73;;;18.40;1.00;;;;;;5085929;28;20414;-83
2022/10/15 14:27:32;;;;;;;4.20;0.97;;;18.50;1.00;;;;;;5081512;28;20439;-84
2022/10/15 14:30:34;;;;;;;2.63;0.73;;;18.50;1.00;;;;;;5079909;28;20584;-83
2022/10/15 14:33:02;;;;;;;2.43;0.70;;;18.60;1.00;;;;;;5078529;28;20398;-84
2022/10/15 14:39:43;;;;;;;1.00;0.70;;;18.60;1.00;;;;;;5096477;28;20912;-83
2022/10/15 14:42:56;;;;;;;0.93;0.70;;;18.50;1.00;;;;;;5084177;28;20454;-84
2022/10/15 14:45:52;;;;;;;0.77;0.77;;;18.40;1.00;;;;;;5089460;28;20399;-84
2022/10/15 14:55:43;;;;;;;2.20;0.77;;;18.40;1.00;;;;;;5082685;28;20899;-82
2022/10/15 14:58:28;;;;;;;4.13;0.67;;;18.40;1.00;;;;;;5078693;28;20440;-83
2022/10/15 15:07:39;;;;;;;1.23;0.73;;;18.40;1.00;;;;;;5078471;28;20441;-83
2022/10/15 15:10:56;;;;;;;2.00;0.77;;;18.30;1.00;;;;;;5077509;28;20443;-81
2022/10/15 15:17:32;;;;;;;1.73;0.73;;;18.50;1.00;;;;;;5086333;28;20497;-79
2022/10/15 15:20:20;;;;;;;1.23;0.87;;;18.40;1.00;;;;;;5075680;28;20411;-78
2022/10/15 15:23:20;;;;;;;2.43;0.70;;;18.30;1.00;;;;;;5085047;28;20992;-78
2022/10/15 15:25:46;;;;;;;0.80;0.80;;;18.40;1.00;;;;;;5077445;28;20391;-78
2022/10/15 15:28:38;;;;;;;2.00;0.70;;;18.30;1.00;;;;;;5084240;28;20419;-83
2022/10/15 15:34:25;;;;;;;6.20;0.77;;;18.30;1.00;;;;;;5086290;28;20863;-76
2022/10/15 15:36:56;;;;;;;1.67;0.70;;;18.40;1.00;;;;;;5076482;28;20413;-76
2022/10/15 15:39:32;;;;;;;1.93;0.60;;;18.40;1.00;;;;;;5080091;28;20671;-76
2022/10/15 15:42:05;;;;;;;3.13;0.70;;;18.40;1.00;;;;;;5089213;28;20789;-75
2022/10/15 15:44:31;;;;;;;0.60;0.60;;;18.30;1.00;;;;;;5083666;28;20513;-73
2022/10/15 15:46:56;;;;;;;1.27;0.63;;;18.30;1.00;;;;;;5083461;28;20426;-73
2022/10/15 15:49:22;;;;;;;4.87;1.17;;;18.30;1.00;;;;;;5074701;28;20181;-72
2022/10/15 15:51:48;;;;;;;2.90;0.83;;;18.20;1.00;;;;;;5074940;28;20190;-73
2022/10/15 15:54:13;;;;;;;0.90;0.70;;;18.30;1.00;;;;;;5081596;28;20648;-73
2022/10/15 15:56:40;;;;;;;6.80;0.80;;;18.30;1.00;;;;;;5083172;28;20572;-73
2022/10/15 15:59:05;;;;;;;2.20;0.60;;;18.30;1.00;;;;;;5077845;28;20566;-75
2022/10/15 16:01:32;;;;;;;1.23;0.67;;;18.30;1.00;;;;;;5085283;28;20431;-75
2022/10/15 16:04:02;;;;;;;4.50;0.90;;;18.30;1.00;;;;;;5084293;28;20173;-75
2022/10/15 16:06:32;;;;;;;3.50;0.77;;;18.20;1.00;;;;;;5080997;28;20447;-77
2022/10/15 16:09:04;;;;;;;5.27;0.87;;;18.20;1.00;;;;;;5073987;28;20847;-76
2022/10/15 16:11:38;;;;;;;3.73;0.90;;;18.20;1.00;;;;;;5093421;28;20418;-76
2022/10/15 16:14:08;;;;;;;2.03;0.80;;;18.20;1.00;;;;;;5088790;28;20405;-76
2022/10/15 16:16:34;;;;;;;3.80;0.70;;;18.20;1.00;;;;;;5087390;28;20377;-76
2022/10/15 16:19:00;;;;;;;5.47;0.60;;;18.20;1.00;;;;;;5074370;28;20447;-76
2022/10/15 16:21:27;;;;;;;3.53;0.80;;;18.20;1.00;;;;;;5086121;28;20406;-76
2022/10/15 16:23:53;;;;;;;2.83;0.60;;;18.20;1.00;;;;;;5083631;28;20412;-76
2022/10/15 16:26:19;;;;;;;1.97;0.70;;;18.10;1.00;;;;;;5093461;28;20448;-76
2022/10/15 16:28:50;;;;;;;2.70;0.90;;;18.10;1.00;;;;;;5079080;28;20443;-75
2022/10/15 16:31:21;;;;;;;0.93;0.93;;;18.10;1.00;;;;;;5087074;28;20729;-75
2022/10/15 16:33:57;;;;;;;4.50;0.90;;;18.00;1.00;;;;;;5080861;28;20876;-75
2022/10/15 16:36:39;;;;;;;0.90;0.80;;;18.10;1.00;;;;;;5083219;28;20834;-75
2022/10/15 16:39:05;;;;;;;2.07;1.00;;;18.10;1.00;;;;;;5082652;28;20404;-75
2022/10/15 16:41:57;;;;;;;5.90;0.73;;;18.10;1.00;;;;;;5080602;28;20437;-77
2022/10/15 16:44:38;;;;;;;7.67;0.80;;;18.10;1.00;;;;;;5077999;28;20450;-77
2022/10/15 16:47:08;;;;;;;1.47;0.80;;;18.10;1.00;;;;;;5085362;28;20406;-76
2022/10/15 16:49:34;;;;;;;13.97;0.97;;;18.00;1.00;;;;;;5075364;28;20407;-75
2022/10/15 16:52:00;;;;;;;2.50;0.80;;;18.10;1.00;;;;;;5081670;28;20830;-75
2022/10/15 16:54:25;;;;;;;2.70;0.80;;;18.00;1.00;;;;;;5075671;28;20204;-75
2022/10/15 16:56:56;;;;;;;2.60;0.70;;;18.00;1.00;;;;;;5076174;28;20189;-76
2022/10/15 16:59:22;;;;;;;2.63;1.00;;;18.00;1.00;;;;;;5082905;28;20243;-73
2022/10/15 17:01:48;;;;;;;5.27;1.00;;;18.00;1.00;;;;;;5078437;28;20977;-73
2022/10/15 17:04:13;;;;;;;6.30;1.00;;;18.00;1.00;;;;;;5083357;28;20486;-72
2022/10/15 17:06:39;;;;;;;1.30;1.10;;;17.90;1.00;;;;;;5080562;28;20180;-71
2022/10/15 17:09:08;;;;;;;1.10;1.10;;;17.80;1.00;;;;;;5079234;28;20209;-73
2022/10/15 17:11:37;;;;;;;1.47;1.03;;;17.80;1.00;;;;;;5085083;28;20563;-74
2022/10/15 17:14:06;;;;;;;2.73;1.20;;;17.80;1.00;;;;;;5081511;28;20388;-73
2022/10/15 17:16:44;;;;;;;1.87;1.10;;;17.80;1.00;;;;;;5076370;28;20461;-73
2022/10/15 17:19:11;;;;;;;8.03;1.40;;;17.80;1.00;;;;;;5077542;28;20916;-73
2022/10/15 17:21:37;;;;;;;2.60;1.67;;;17.80;1.00;;;;;;5088800;28;20842;-81
2022/10/15 17:24:38;;;;;;;1.20;1.10;;;17.80;1.00;;;;;;5087716;28;20413;-82
2022/10/15 17:27:08;;;;;;;3.93;1.20;;;17.80;1.00;;;;;;5080910;28;20386;-84
2022/10/15 17:33:38;;;;;;;2.10;1.40;;;17.70;1.00;;;;;;5080976;28;20472;-79
2022/10/15 17:39:26;;;;;;;7.60;1.40;;;17.60;1.00;;;;;;5075664;28;20410;-90
2022/10/15 17:42:20;;;;;;;2.03;1.40;;;17.60;3.20;;;;;;5074373;28;20448;-88
2022/10/15 17:45:09;;;;;;;5.17;1.40;;;17.50;6.00;;;;;;5087354;28;20930;-82
2022/10/15 17:48:08;;;;;;;3.60;1.10;;;17.60;5.30;;;;;;5085150;28;20486;-83
2022/10/15 17:50:50;;;;;;;10.90;1.90;;;17.60;4.00;;;;;;5085544;28;20395;-81
2022/10/15 17:53:38;;;;;;;2.23;1.10;;;17.60;2.60;;;;;;5074245;28;20512;-76
2022/10/15 17:56:16;;;;;;;11.80;1.20;;;17.70;1.40;;;;;;5087180;28;20447;-80
2022/10/15 17:59:10;;;;;;;4.53;1.37;;;17.70;1.00;;;;;;5085304;28;20972;-88
2022/10/15 18:01:41;;;;;;;3.07;1.30;;;17.70;1.00;;;;;;5075110;28;20497;-86
2022/10/15 18:04:10;;;;;;;5.03;1.90;;;17.70;1.00;;;;;;5091282;28;20380;-84
2022/10/15 18:06:51;;;;;;;3.07;1.50;;;17.60;1.20;;;;;;5085151;28;20421;-85
2022/10/15 18:09:38;;;;;;;3.27;1.37;;;17.50;7.00;;;;;;5078814;28;20788;-85
2022/10/15 18:12:08;;;;;;;2.40;1.40;;;17.50;9.40;;;;;;5085254;28;20412;-87
2022/10/15 18:14:38;;;;;;;2.53;1.50;;;17.40;11.20;;;;;;5075596;28;20394;-87
2022/10/15 18:17:09;;;;;;;1.50;1.40;;;17.50;13.70;;;;;;5077386;28;20397;-89
2022/10/15 18:19:35;;;;;;;6.20;1.40;;;17.50;12.00;;;;;;5083233;28;20447;-86
2022/10/15 18:22:01;;;;;;;3.60;1.17;;;17.50;10.50;;;;;;5078919;28;20516;-84
2022/10/15 18:24:26;;;;;;;4.93;1.40;;;17.50;11.60;;;;;;5074033;28;20172;-84
2022/10/15 18:26:56;;;;;;;1.50;1.40;;;17.50;10.90;;;;;;5088660;28;20666;-82
2022/10/15 18:29:38;;;;;;;4.83;1.50;;;17.50;10.80;;;;;;5090012;28;20172;-81
2022/10/15 18:32:08;;;;;;;5.03;1.53;;;17.60;10.20;;;;;;5079008;28;20521;-81
2022/10/15 18:35:08;;;;;;;6.23;1.50;;;17.50;10.10;;;;;;5082181;28;20456;-81